Echols, Kentucky
Current Conditions -  °F | °C
As of 10:55 PM on Friday 28 Nov 2014 (Local Time) from K2I0 Reporting Station
Clear Clear  
Wind Chill: 38°   Ceiling: Unl
Heat Index: 43°   Visibility: 10mi
Dew Point: 28°   Wind: 8mph
Humidity: 57%   Direction: 210°SSW
Pressure: 30.06"   Gusts: NA
Location:  37.3559°N, 86.8747°W
Report Text: K2I0 290455Z AUTO 21007KT 10SM CLR 06/M02 A3006 RMK AO2 T00601020
Loading
Personal Weather Stations






























Interactive Weather Map New forecast layout! Learn more

10-Day Weather Forecast

Advertisements
Track Severe Weather on mobile